sensor_id;sensor_type;location;lat;lon;timestamp;pressure;altitude;pressure_sealevel;temperature;humidity
64835;BME280;51293;59.296;18.006;2022-07-06T00:02:20;100745.47;;;13.05;75.18
64835;BME280;51293;59.296;18.006;2022-07-06T00:04:45;100747.09;;;13.06;75.17
64835;BME280;51293;59.296;18.006;2022-07-06T00:07:11;100755.59;;;13.09;74.92
64835;BME280;51293;59.296;18.006;2022-07-06T00:09:36;100744.88;;;13.03;75.41
64835;BME280;51293;59.296;18.006;2022-07-06T00:12:02;100743.25;;;13.02;75.46
64835;BME280;51293;59.296;18.006;2022-07-06T00:14:27;100740.34;;;12.91;75.98
64835;BME280;51293;59.296;18.006;2022-07-06T00:16:52;100738.22;;;12.93;75.89
64835;BME280;51293;59.296;18.006;2022-07-06T00:19:18;100740.25;;;12.86;76.19
64835;BME280;51293;59.296;18.006;2022-07-06T00:21:43;100741.91;;;12.87;76.29
64835;BME280;51293;59.296;18.006;2022-07-06T00:24:09;100742.31;;;12.79;76.33
64835;BME280;51293;59.296;18.006;2022-07-06T00:26:34;100741.47;;;12.79;76.49
64835;BME280;51293;59.296;18.006;2022-07-06T00:28:59;100732.19;;;12.75;76.77
64835;BME280;51293;59.296;18.006;2022-07-06T00:31:25;100741.88;;;12.71;77.16
64835;BME280;51293;59.296;18.006;2022-07-06T00:33:50;100728.53;;;12.69;77.27
64835;BME280;51293;59.296;18.006;2022-07-06T00:36:16;100735.53;;;12.65;77.45
64835;BME280;51293;59.296;18.006;2022-07-06T00:38:41;100739.56;;;12.62;77.60
64835;BME280;51293;59.296;18.006;2022-07-06T00:41:07;100730.84;;;12.60;77.64
64835;BME280;51293;59.296;18.006;2022-07-06T00:43:53;100738.16;;;12.60;77.83
64835;BME280;51293;59.296;18.006;2022-07-06T00:46:31;100728.84;;;12.56;77.99
64835;BME280;51293;59.296;18.006;2022-07-06T00:48:57;100733.44;;;12.55;77.85
64835;BME280;51293;59.296;18.006;2022-07-06T00:51:25;100730.16;;;12.53;78.04
64835;BME280;51293;59.296;18.006;2022-07-06T00:53:54;100730.41;;;12.52;77.89
64835;BME280;51293;59.296;18.006;2022-07-06T00:56:20;100734.34;;;12.44;78.23
64835;BME280;51293;59.296;18.006;2022-07-06T00:58:45;100728.97;;;12.49;78.08
64835;BME280;51293;59.296;18.006;2022-07-06T01:01:11;100729.16;;;12.43;78.06
64835;BME280;51293;59.296;18.006;2022-07-06T01:03:37;100730.94;;;12.37;78.56
64835;BME280;51293;59.296;18.006;2022-07-06T01:06:02;100726.47;;;12.31;78.64
64835;BME280;51293;59.296;18.006;2022-07-06T01:08:28;100728.94;;;12.32;78.59
64835;BME280;51293;59.296;18.006;2022-07-06T01:10:54;100727.44;;;12.25;78.97
64835;BME280;51293;59.296;18.006;2022-07-06T01:13:19;100725.44;;;12.20;79.20
64835;BME280;51293;59.296;18.006;2022-07-06T01:15:44;100725.16;;;12.33;79.09
64835;BME280;51293;59.296;18.006;2022-07-06T01:18:10;100722.84;;;12.25;79.06
64835;BME280;51293;59.296;18.006;2022-07-06T01:20:37;100724.50;;;12.26;79.27
64835;BME280;51293;59.296;18.006;2022-07-06T01:23:02;100729.22;;;12.19;79.33
64835;BME280;51293;59.296;18.006;2022-07-06T01:25:27;100721.22;;;12.13;79.83
64835;BME280;51293;59.296;18.006;2022-07-06T01:27:53;100726.66;;;12.13;79.86
64835;BME280;51293;59.296;18.006;2022-07-06T01:30:19;100731.13;;;12.07;80.14
64835;BME280;51293;59.296;18.006;2022-07-06T01:32:45;100727.50;;;12.01;80.33
64835;BME280;51293;59.296;18.006;2022-07-06T01:35:13;100733.28;;;12.05;80.04
64835;BME280;51293;59.296;18.006;2022-07-06T01:37:39;100731.88;;;12.02;80.25
64835;BME280;51293;59.296;18.006;2022-07-06T01:40:06;100726.31;;;11.97;80.51
64835;BME280;51293;59.296;18.006;2022-07-06T01:42:33;100727.16;;;11.98;80.59
64835;BME280;51293;59.296;18.006;2022-07-06T01:44:59;100736.38;;;11.97;80.48
64835;BME280;51293;59.296;18.006;2022-07-06T01:47:24;100736.38;;;11.97;80.50
64835;BME280;51293;59.296;18.006;2022-07-06T01:49:50;100735.22;;;11.93;80.78
64835;BME280;51293;59.296;18.006;2022-07-06T01:52:15;100742.03;;;11.95;80.87
64835;BME280;51293;59.296;18.006;2022-07-06T01:54:41;100738.75;;;11.93;80.69
64835;BME280;51293;59.296;18.006;2022-07-06T01:57:06;100731.31;;;11.89;81.19
64835;BME280;51293;59.296;18.006;2022-07-06T01:59:32;100733.19;;;11.88;81.25
64835;BME280;51293;59.296;18.006;2022-07-06T02:01:57;100737.09;;;11.92;81.44
64835;BME280;51293;59.296;18.006;2022-07-06T02:04:23;100728.34;;;11.90;81.28
64835;BME280;51293;59.296;18.006;2022-07-06T02:06:48;100730.16;;;11.85;81.69
64835;BME280;51293;59.296;18.006;2022-07-06T02:09:14;100730.16;;;11.85;81.58
64835;BME280;51293;59.296;18.006;2022-07-06T02:11:39;100733.19;;;11.88;81.35
64835;BME280;51293;59.296;18.006;2022-07-06T02:14:05;100722.22;;;11.83;81.58
64835;BME280;51293;59.296;18.006;2022-07-06T02:16:30;100721.41;;;11.82;81.78
64835;BME280;51293;59.296;18.006;2022-07-06T02:18:56;100717.50;;;11.78;81.73
64835;BME280;51293;59.296;18.006;2022-07-06T02:21:22;100725.19;;;11.81;81.61
64835;BME280;51293;59.296;18.006;2022-07-06T02:23:48;100732.25;;;11.82;81.56
64835;BME280;51293;59.296;18.006;2022-07-06T02:26:13;100722.81;;;11.73;81.84
64835;BME280;51293;59.296;18.006;2022-07-06T02:28:38;100718.69;;;11.71;82.12
64835;BME280;51293;59.296;18.006;2022-07-06T02:31:04;100718.81;;;11.76;82.08
64835;BME280;51293;59.296;18.006;2022-07-06T02:33:30;100726.59;;;11.72;81.92
64835;BME280;51293;59.296;18.006;2022-07-06T02:35:55;100722.81;;;11.73;82.21
64835;BME280;51293;59.296;18.006;2022-07-06T02:38:21;100725.50;;;11.73;82.33
64835;BME280;51293;59.296;18.006;2022-07-06T02:40:46;100729.06;;;11.74;82.55
64835;BME280;51293;59.296;18.006;2022-07-06T02:43:12;100725.06;;;11.76;82.26
64835;BME280;51293;59.296;18.006;2022-07-06T02:45:37;100718.47;;;11.84;81.90
64835;BME280;51293;59.296;18.006;2022-07-06T02:48:03;100718.31;;;11.79;82.21
64835;BME280;51293;59.296;18.006;2022-07-06T02:50:28;100712.31;;;11.77;82.14
64835;BME280;51293;59.296;18.006;2022-07-06T02:52:54;100710.41;;;11.77;82.18
64835;BME280;51293;59.296;18.006;2022-07-06T02:55:20;100717.97;;;11.75;82.38
64835;BME280;51293;59.296;18.006;2022-07-06T02:57:45;100708.78;;;11.76;82.43
64835;BME280;51293;59.296;18.006;2022-07-06T03:00:11;100711.00;;;11.79;82.48
64835;BME280;51293;59.296;18.006;2022-07-06T03:02:37;100712.44;;;11.82;82.44
64835;BME280;51293;59.296;18.006;2022-07-06T03:05:02;100711.84;;;11.92;81.78
64835;BME280;51293;59.296;18.006;2022-07-06T03:07:28;100708.66;;;11.95;82.01
64835;BME280;51293;59.296;18.006;2022-07-06T03:09:53;100708.44;;;11.85;82.52
64835;BME280;51293;59.296;18.006;2022-07-06T03:12:19;100711.38;;;11.83;82.61
64835;BME280;51293;59.296;18.006;2022-07-06T03:14:44;100709.84;;;11.87;82.62
64835;BME280;51293;59.296;18.006;2022-07-06T03:17:09;100705.94;;;11.95;82.53
64835;BME280;51293;59.296;18.006;2022-07-06T03:19:35;100712.66;;;11.92;82.82
64835;BME280;51293;59.296;18.006;2022-07-06T03:22:00;100721.47;;;11.99;82.59
64835;BME280;51293;59.296;18.006;2022-07-06T03:24:26;100711.75;;;12.15;81.58
64835;BME280;51293;59.296;18.006;2022-07-06T03:26:51;100718.25;;;12.14;82.23
64835;BME280;51293;59.296;18.006;2022-07-06T03:29:17;100712.75;;;12.09;82.38
64835;BME280;51293;59.296;18.006;2022-07-06T03:31:42;100717.69;;;12.12;82.39
64835;BME280;51293;59.296;18.006;2022-07-06T03:34:08;100709.03;;;12.15;82.34
64835;BME280;51293;59.296;18.006;2022-07-06T03:36:33;100712.69;;;12.21;82.28
64835;BME280;51293;59.296;18.006;2022-07-06T03:38:58;100715.97;;;12.23;82.30
64835;BME280;51293;59.296;18.006;2022-07-06T03:41:24;100711.72;;;12.27;81.82
64835;BME280;51293;59.296;18.006;2022-07-06T03:43:49;100712.31;;;12.29;81.58
64835;BME280;51293;59.296;18.006;2022-07-06T03:46:14;100704.66;;;12.26;81.93
64835;BME280;51293;59.296;18.006;2022-07-06T03:48:40;100707.19;;;12.32;81.49
64835;BME280;51293;59.296;18.006;2022-07-06T03:51:05;100710.59;;;12.40;81.23
64835;BME280;51293;59.296;18.006;2022-07-06T03:53:31;100703.78;;;12.37;81.19
64835;BME280;51293;59.296;18.006;2022-07-06T03:55:57;100700.81;;;12.38;81.27
64835;BME280;51293;59.296;18.006;2022-07-06T03:58:41;100699.47;;;12.41;81.02
64835;BME280;51293;59.296;18.006;2022-07-06T04:01:06;100698.34;;;12.37;81.66
64835;BME280;51293;59.296;18.006;2022-07-06T04:03:31;100692.25;;;12.47;80.94
64835;BME280;51293;59.296;18.006;2022-07-06T04:05:57;100704.09;;;12.41;81.54
64835;BME280;51293;59.296;18.006;2022-07-06T04:08:22;100699.44;;;12.53;80.95
64835;BME280;51293;59.296;18.006;2022-07-06T04:10:48;100707.44;;;12.59;80.85
64835;BME280;51293;59.296;18.006;2022-07-06T04:13:13;100716.56;;;12.53;80.95
64835;BME280;51293;59.296;18.006;2022-07-06T04:15:38;100705.63;;;12.65;80.92
64835;BME280;51293;59.296;18.006;2022-07-06T04:18:04;100717.91;;;12.68;80.55
64835;BME280;51293;59.296;18.006;2022-07-06T04:20:30;100714.69;;;12.71;80.50
64835;BME280;51293;59.296;18.006;2022-07-06T04:22:55;100711.25;;;12.75;80.62
64835;BME280;51293;59.296;18.006;2022-07-06T04:25:21;100708.75;;;12.74;80.33
64835;BME280;51293;59.296;18.006;2022-07-06T04:27:46;100712.34;;;12.91;79.99
64835;BME280;51293;59.296;18.006;2022-07-06T04:30:12;100709.44;;;12.98;79.91
64835;BME280;51293;59.296;18.006;2022-07-06T04:32:37;100714.31;;;12.96;79.93
64835;BME280;51293;59.296;18.006;2022-07-06T04:35:04;100708.72;;;13.02;79.44
64835;BME280;51293;59.296;18.006;2022-07-06T04:37:30;100708.22;;;13.05;79.60
64835;BME280;51293;59.296;18.006;2022-07-06T04:39:55;100707.22;;;13.11;79.11
64835;BME280;51293;59.296;18.006;2022-07-06T04:42:21;100709.31;;;13.21;79.00
64835;BME280;51293;59.296;18.006;2022-07-06T04:44:46;100698.44;;;13.21;78.83
64835;BME280;51293;59.296;18.006;2022-07-06T04:47:12;100703.47;;;13.29;78.63
64835;BME280;51293;59.296;18.006;2022-07-06T04:49:38;100707.50;;;13.27;78.76
64835;BME280;51293;59.296;18.006;2022-07-06T04:52:04;100703.03;;;13.37;78.48
64835;BME280;51293;59.296;18.006;2022-07-06T04:54:30;100708.31;;;13.44;78.02
64835;BME280;51293;59.296;18.006;2022-07-06T04:56:55;100705.00;;;13.42;78.20
64835;BME280;51293;59.296;18.006;2022-07-06T04:59:21;100710.50;;;13.47;77.88
64835;BME280;51293;59.296;18.006;2022-07-06T05:01:46;100705.97;;;13.53;77.90
64835;BME280;51293;59.296;18.006;2022-07-06T05:04:12;100701.03;;;13.49;77.73
64835;BME280;51293;59.296;18.006;2022-07-06T05:06:37;100696.06;;;13.63;77.42
64835;BME280;51293;59.296;18.006;2022-07-06T05:09:02;100693.03;;;13.60;77.56
64835;BME280;51293;59.296;18.006;2022-07-06T05:11:29;100687.00;;;13.58;77.91
64835;BME280;51293;59.296;18.006;2022-07-06T05:13:54;100681.63;;;13.63;77.94
64835;BME280;51293;59.296;18.006;2022-07-06T05:16:21;100692.28;;;13.86;77.07
64835;BME280;51293;59.296;18.006;2022-07-06T05:18:47;100690.09;;;13.88;76.76
64835;BME280;51293;59.296;18.006;2022-07-06T05:21:13;100685.50;;;13.89;76.89
64835;BME280;51293;59.296;18.006;2022-07-06T05:23:39;100675.69;;;13.88;76.75
64835;BME280;51293;59.296;18.006;2022-07-06T05:26:04;100693.72;;;13.94;76.76
64835;BME280;51293;59.296;18.006;2022-07-06T05:28:30;100679.75;;;14.07;76.34
64835;BME280;51293;59.296;18.006;2022-07-06T05:30:55;100681.38;;;14.08;76.03
64835;BME280;51293;59.296;18.006;2022-07-06T05:33:21;100682.50;;;14.12;76.40
64835;BME280;51293;59.296;18.006;2022-07-06T05:35:46;100683.44;;;14.23;75.90
64835;BME280;51293;59.296;18.006;2022-07-06T05:38:11;100681.28;;;14.25;75.34
64835;BME280;51293;59.296;18.006;2022-07-06T05:40:37;100671.84;;;14.32;74.94
64835;BME280;51293;59.296;18.006;2022-07-06T05:43:02;100674.22;;;14.24;75.68
64835;BME280;51293;59.296;18.006;2022-07-06T05:45:28;100679.19;;;14.32;75.14
64835;BME280;51293;59.296;18.006;2022-07-06T05:47:54;100683.59;;;14.38;75.10
64835;BME280;51293;59.296;18.006;2022-07-06T05:50:38;100684.31;;;14.50;74.90
64835;BME280;51293;59.296;18.006;2022-07-06T05:53:04;100691.63;;;14.77;73.43
64835;BME280;51293;59.296;18.006;2022-07-06T05:55:30;100685.09;;;14.78;73.37
64835;BME280;51293;59.296;18.006;2022-07-06T05:57:56;100685.97;;;14.83;73.73
64835;BME280;51293;59.296;18.006;2022-07-06T06:00:26;100689.34;;;14.96;73.13
64835;BME280;51293;59.296;18.006;2022-07-06T06:02:52;100681.22;;;15.06;72.50
64835;BME280;51293;59.296;18.006;2022-07-06T06:05:18;100674.56;;;15.24;71.43
64835;BME280;51293;59.296;18.006;2022-07-06T06:07:44;100678.94;;;15.30;71.42
64835;BME280;51293;59.296;18.006;2022-07-06T06:10:12;100677.44;;;15.49;71.21
64835;BME280;51293;59.296;18.006;2022-07-06T06:12:38;100677.50;;;15.59;70.88
64835;BME280;51293;59.296;18.006;2022-07-06T06:15:04;100677.66;;;15.95;69.44
64835;BME280;51293;59.296;18.006;2022-07-06T06:17:31;100683.72;;;16.02;68.89
64835;BME280;51293;59.296;18.006;2022-07-06T06:19:57;100675.28;;;16.09;69.26
64835;BME280;51293;59.296;18.006;2022-07-06T06:22:22;100673.41;;;16.29;67.69
64835;BME280;51293;59.296;18.006;2022-07-06T06:24:48;100671.22;;;16.37;66.98
64835;BME280;51293;59.296;18.006;2022-07-06T06:27:13;100670.66;;;16.19;66.92
64835;BME280;51293;59.296;18.006;2022-07-06T06:29:39;100668.75;;;16.20;67.44
64835;BME280;51293;59.296;18.006;2022-07-06T06:32:04;100670.41;;;16.26;67.11
64835;BME280;51293;59.296;18.006;2022-07-06T06:34:33;100663.84;;;16.27;67.14
64835;BME280;51293;59.296;18.006;2022-07-06T06:36:58;100668.81;;;16.55;66.36
64835;BME280;51293;59.296;18.006;2022-07-06T06:39:23;100656.84;;;16.82;66.10
64835;BME280;51293;59.296;18.006;2022-07-06T06:41:49;100663.94;;;16.88;65.63
64835;BME280;51293;59.296;18.006;2022-07-06T06:44:14;100670.78;;;17.06;64.48
64835;BME280;51293;59.296;18.006;2022-07-06T06:46:40;100664.19;;;17.02;64.51
64835;BME280;51293;59.296;18.006;2022-07-06T06:49:06;100660.66;;;16.81;65.70
64835;BME280;51293;59.296;18.006;2022-07-06T06:51:32;100668.84;;;17.11;64.62
64835;BME280;51293;59.296;18.006;2022-07-06T06:53:57;100668.84;;;17.22;64.80
64835;BME280;51293;59.296;18.006;2022-07-06T06:56:23;100669.94;;;16.95;65.11
64835;BME280;51293;59.296;18.006;2022-07-06T06:58:48;100666.13;;;16.86;65.00
64835;BME280;51293;59.296;18.006;2022-07-06T07:01:14;100669.44;;;16.88;65.42
64835;BME280;51293;59.296;18.006;2022-07-06T07:03:39;100665.59;;;16.74;65.83
64835;BME280;51293;59.296;18.006;2022-07-06T07:06:05;100668.28;;;16.64;66.63
64835;BME280;51293;59.296;18.006;2022-07-06T07:08:30;100672.91;;;16.63;66.39
64835;BME280;51293;59.296;18.006;2022-07-06T07:10:55;100674.53;;;16.54;66.39
64835;BME280;51293;59.296;18.006;2022-07-06T07:13:21;100679.44;;;16.37;65.89
64835;BME280;51293;59.296;18.006;2022-07-06T07:15:46;100669.03;;;16.28;66.21
64835;BME280;51293;59.296;18.006;2022-07-06T07:18:12;100670.94;;;16.28;66.76
64835;BME280;51293;59.296;18.006;2022-07-06T07:20:37;100674.75;;;16.17;67.60
64835;BME280;51293;59.296;18.006;2022-07-06T07:23:02;100667.94;;;16.24;67.31
64835;BME280;51293;59.296;18.006;2022-07-06T07:25:28;100663.28;;;16.15;66.70
64835;BME280;51293;59.296;18.006;2022-07-06T07:27:54;100668.47;;;16.16;66.02
64835;BME280;51293;59.296;18.006;2022-07-06T07:30:19;100659.66;;;16.04;65.55
64835;BME280;51293;59.296;18.006;2022-07-06T07:32:45;100662.16;;;16.11;65.62
64835;BME280;51293;59.296;18.006;2022-07-06T07:35:10;100662.94;;;16.01;66.57
64835;BME280;51293;59.296;18.006;2022-07-06T07:37:36;100656.94;;;16.04;67.39
64835;BME280;51293;59.296;18.006;2022-07-06T07:40:02;100655.09;;;16.15;66.65
64835;BME280;51293;59.296;18.006;2022-07-06T07:42:27;100656.72;;;16.21;66.48
64835;BME280;51293;59.296;18.006;2022-07-06T07:44:53;100645.03;;;16.56;65.71
64835;BME280;51293;59.296;18.006;2022-07-06T07:47:18;100642.88;;;16.73;64.30
64835;BME280;51293;59.296;18.006;2022-07-06T07:49:44;100647.81;;;16.97;65.53
64835;BME280;51293;59.296;18.006;2022-07-06T07:52:09;100648.88;;;17.01;63.34
64835;BME280;51293;59.296;18.006;2022-07-06T07:54:35;100648.59;;;17.07;63.82
64835;BME280;51293;59.296;18.006;2022-07-06T07:57:00;100651.34;;;17.07;61.35
64835;BME280;51293;59.296;18.006;2022-07-06T07:59:26;100648.59;;;17.07;62.68
64835;BME280;51293;59.296;18.006;2022-07-06T08:01:51;100650.22;;;17.19;61.72
64835;BME280;51293;59.296;18.006;2022-07-06T08:04:17;100655.38;;;17.35;60.03
64835;BME280;51293;59.296;18.006;2022-07-06T08:06:42;100660.03;;;17.35;59.82
64835;BME280;51293;59.296;18.006;2022-07-06T08:09:07;100655.13;;;17.32;59.38
64835;BME280;51293;59.296;18.006;2022-07-06T08:11:36;100655.38;;;17.40;58.71
64835;BME280;51293;59.296;18.006;2022-07-06T08:14:02;100656.50;;;17.34;60.27
64835;BME280;51293;59.296;18.006;2022-07-06T08:16:28;100655.91;;;17.48;56.68
64835;BME280;51293;59.296;18.006;2022-07-06T08:18:54;100648.25;;;17.50;58.65
64835;BME280;51293;59.296;18.006;2022-07-06T08:21:20;100654.19;;;17.67;59.01
64835;BME280;51293;59.296;18.006;2022-07-06T08:23:45;100653.59;;;17.85;58.35
64835;BME280;51293;59.296;18.006;2022-07-06T08:26:10;100657.59;;;18.13;58.07
64835;BME280;51293;59.296;18.006;2022-07-06T08:28:36;100655.03;;;18.27;57.69
64835;BME280;51293;59.296;18.006;2022-07-06T08:31:01;100643.63;;;18.10;56.48
64835;BME280;51293;59.296;18.006;2022-07-06T08:33:26;100643.34;;;18.50;56.87
64835;BME280;51293;59.296;18.006;2022-07-06T08:35:52;100650.50;;;18.86;55.46
64835;BME280;51293;59.296;18.006;2022-07-06T08:38:17;100639.41;;;19.30;54.68
64835;BME280;51293;59.296;18.006;2022-07-06T08:40:45;100639.41;;;19.54;54.60
64835;BME280;51293;59.296;18.006;2022-07-06T08:43:12;100646.66;;;19.69;53.32
64835;BME280;51293;59.296;18.006;2022-07-06T08:45:40;100648.56;;;19.92;50.82
64835;BME280;51293;59.296;18.006;2022-07-06T08:48:07;100648.00;;;19.95;51.10
64835;BME280;51293;59.296;18.006;2022-07-06T08:50:33;100636.34;;;20.03;50.73
64835;BME280;51293;59.296;18.006;2022-07-06T08:52:59;100640.94;;;19.89;50.85
64835;BME280;51293;59.296;18.006;2022-07-06T08:55:27;100633.06;;;19.58;51.77
64835;BME280;51293;59.296;18.006;2022-07-06T08:57:54;100635.72;;;19.40;52.78
64835;BME280;51293;59.296;18.006;2022-07-06T09:00:20;100646.66;;;19.69;53.64
64835;BME280;51293;59.296;18.006;2022-07-06T09:02:45;100642.28;;;19.68;51.06
64835;BME280;51293;59.296;18.006;2022-07-06T09:05:14;100641.09;;;19.50;50.43
64835;BME280;51293;59.296;18.006;2022-07-06T09:07:40;100637.50;;;19.54;51.14
64835;BME280;51293;59.296;18.006;2022-07-06T09:10:08;100628.53;;;19.44;50.67
64835;BME280;51293;59.296;18.006;2022-07-06T09:12:34;100637.56;;;19.44;50.98
64835;BME280;51293;59.296;18.006;2022-07-06T09:14:59;100627.44;;;20.11;49.80
64835;BME280;51293;59.296;18.006;2022-07-06T09:17:27;100632.47;;;20.42;48.93
64835;BME280;51293;59.296;18.006;2022-07-06T09:19:53;100630.69;;;20.32;48.86
64835;BME280;51293;59.296;18.006;2022-07-06T09:22:30;100629.22;;;20.59;48.47
64835;BME280;51293;59.296;18.006;2022-07-06T09:25:10;100619.75;;;20.97;47.06
64835;BME280;51293;59.296;18.006;2022-07-06T09:27:44;100621.09;;;21.14;46.55
64835;BME280;51293;59.296;18.006;2022-07-06T09:30:15;100615.13;;;21.67;46.14
64835;BME280;51293;59.296;18.006;2022-07-06T09:32:43;100618.94;;;22.07;43.78
64835;BME280;51293;59.296;18.006;2022-07-06T09:35:20;100606.09;;;22.16;43.63
64835;BME280;51293;59.296;18.006;2022-07-06T09:37:46;100629.19;;;22.65;42.45
64835;BME280;51293;59.296;18.006;2022-07-06T09:40:19;100616.72;;;22.45;43.35
64835;BME280;51293;59.296;18.006;2022-07-06T09:42:45;100615.47;;;22.74;42.96
64835;BME280;51293;59.296;18.006;2022-07-06T09:45:10;100616.13;;;22.93;41.66
64835;BME280;51293;59.296;18.006;2022-07-06T09:47:36;100622.22;;;23.12;41.07
64835;BME280;51293;59.296;18.006;2022-07-06T09:50:05;100627.38;;;22.38;40.89
64835;BME280;51293;59.296;18.006;2022-07-06T09:52:34;100622.06;;;22.64;41.52
64835;BME280;51293;59.296;18.006;2022-07-06T09:54:59;100625.75;;;22.82;42.34
64835;BME280;51293;59.296;18.006;2022-07-06T09:57:25;100612.91;;;23.39;41.30
64835;BME280;51293;59.296;18.006;2022-07-06T09:59:51;100611.56;;;23.28;39.94
64835;BME280;51293;59.296;18.006;2022-07-06T10:02:19;100618.38;;;23.22;40.04
64835;BME280;51293;59.296;18.006;2022-07-06T10:04:45;100601.16;;;22.71;41.38
64835;BME280;51293;59.296;18.006;2022-07-06T10:07:11;100608.66;;;22.93;41.42
64835;BME280;51293;59.296;18.006;2022-07-06T10:09:37;100612.97;;;23.17;40.71
64835;BME280;51293;59.296;18.006;2022-07-06T10:12:03;100603.47;;;22.78;41.55
64835;BME280;51293;59.296;18.006;2022-07-06T10:14:32;100610.03;;;23.13;41.60
64835;BME280;51293;59.296;18.006;2022-07-06T10:17:00;100609.63;;;23.60;41.17
64835;BME280;51293;59.296;18.006;2022-07-06T10:19:27;100604.97;;;24.12;40.50
64835;BME280;51293;59.296;18.006;2022-07-06T10:21:53;100599.94;;;24.23;38.96
64835;BME280;51293;59.296;18.006;2022-07-06T10:24:20;100605.34;;;24.54;37.92
64835;BME280;51293;59.296;18.006;2022-07-06T10:26:47;100592.78;;;24.39;38.21
64835;BME280;51293;59.296;18.006;2022-07-06T10:29:13;100598.31;;;24.48;37.04
64835;BME280;51293;59.296;18.006;2022-07-06T10:31:42;100607.44;;;24.57;38.21
64835;BME280;51293;59.296;18.006;2022-07-06T10:34:11;100601.56;;;24.76;38.67
64835;BME280;51293;59.296;18.006;2022-07-06T10:36:41;100606.00;;;24.51;37.70
64835;BME280;51293;59.296;18.006;2022-07-06T10:39:09;100609.19;;;23.84;38.98
64835;BME280;51293;59.296;18.006;2022-07-06T10:41:53;100594.44;;;23.09;39.99
64835;BME280;51293;59.296;18.006;2022-07-06T10:44:26;100610.84;;;22.60;41.49
64835;BME280;51293;59.296;18.006;2022-07-06T10:46:52;100603.56;;;21.92;43.08
64835;BME280;51293;59.296;18.006;2022-07-06T10:49:18;100608.31;;;21.64;44.52
64835;BME280;51293;59.296;18.006;2022-07-06T10:51:44;100599.63;;;21.29;45.54
64835;BME280;51293;59.296;18.006;2022-07-06T10:54:09;100598.84;;;20.96;46.20
64835;BME280;51293;59.296;18.006;2022-07-06T10:56:39;100601.50;;;21.01;45.83
64835;BME280;51293;59.296;18.006;2022-07-06T10:59:09;100598.53;;;20.98;45.63
64835;BME280;51293;59.296;18.006;2022-07-06T11:01:36;100584.31;;;21.65;44.65
64835;BME280;51293;59.296;18.006;2022-07-06T11:06:31;100586.75;;;22.83;42.30
64835;BME280;51293;59.296;18.006;2022-07-06T11:11:42;100602.88;;;23.52;40.80
64835;BME280;51293;59.296;18.006;2022-07-06T11:14:17;100606.91;;;23.94;38.71
64835;BME280;51293;59.296;18.006;2022-07-06T11:19:17;100605.91;;;23.81;35.96
64835;BME280;51293;59.296;18.006;2022-07-06T11:21:50;100596.41;;;22.86;38.56
64835;BME280;51293;59.296;18.006;2022-07-06T11:24:20;100601.47;;;22.48;38.60
64835;BME280;51293;59.296;18.006;2022-07-06T11:26:47;100594.50;;;21.78;39.91
64835;BME280;51293;59.296;18.006;2022-07-06T11:29:15;100591.47;;;21.38;39.83
64835;BME280;51293;59.296;18.006;2022-07-06T11:31:42;100595.44;;;21.73;40.73
64835;BME280;51293;59.296;18.006;2022-07-06T11:34:10;100584.59;;;22.71;40.04
64835;BME280;51293;59.296;18.006;2022-07-06T11:36:37;100580.88;;;23.78;38.03
64835;BME280;51293;59.296;18.006;2022-07-06T11:39:04;100580.22;;;24.76;36.97
64835;BME280;51293;59.296;18.006;2022-07-06T11:41:31;100579.28;;;25.87;35.92
64835;BME280;51293;59.296;18.006;2022-07-06T11:43:56;100573.16;;;27.01;33.96
64835;BME280;51293;59.296;18.006;2022-07-06T11:46:30;100570.50;;;28.87;31.38
64835;BME280;51293;59.296;18.006;2022-07-06T11:49:06;100554.78;;;29.92;28.92
64835;BME280;51293;59.296;18.006;2022-07-06T11:51:34;100565.25;;;30.73;26.50
64835;BME280;51293;59.296;18.006;2022-07-06T11:54:21;100573.03;;;31.29;24.30
64835;BME280;51293;59.296;18.006;2022-07-06T11:56:55;100570.66;;;31.80;23.60
64835;BME280;51293;59.296;18.006;2022-07-06T11:59:32;100568.47;;;31.97;23.40
64835;BME280;51293;59.296;18.006;2022-07-06T12:02:02;100561.94;;;32.49;22.72
64835;BME280;51293;59.296;18.006;2022-07-06T12:04:30;100554.50;;;32.64;23.30
64835;BME280;51293;59.296;18.006;2022-07-06T12:07:00;100563.13;;;33.30;22.14
64835;BME280;51293;59.296;18.006;2022-07-06T12:09:29;100565.28;;;33.43;21.51
64835;BME280;51293;59.296;18.006;2022-07-06T12:11:55;100549.94;;;33.89;21.04
64835;BME280;51293;59.296;18.006;2022-07-06T12:14:20;100559.69;;;33.47;21.35
64835;BME280;51293;59.296;18.006;2022-07-06T12:16:48;100554.91;;;33.55;21.18
64835;BME280;51293;59.296;18.006;2022-07-06T12:19:14;100554.88;;;30.96;23.93
64835;BME280;51293;59.296;18.006;2022-07-06T12:21:49;100550.56;;;29.32;26.74
64835;BME280;51293;59.296;18.006;2022-07-06T12:24:22;100548.09;;;28.67;27.18
64835;BME280;51293;59.296;18.006;2022-07-06T12:26:49;100557.03;;;29.04;26.81
64835;BME280;51293;59.296;18.006;2022-07-06T12:29:16;100550.63;;;30.83;26.23
64835;BME280;51293;59.296;18.006;2022-07-06T12:31:53;100546.97;;;32.04;24.67
64835;BME280;51293;59.296;18.006;2022-07-06T12:34:21;100549.03;;;32.78;22.75
64835;BME280;51293;59.296;18.006;2022-07-06T12:36:55;100544.09;;;33.53;22.34
64835;BME280;51293;59.296;18.006;2022-07-06T12:39:28;100538.41;;;31.14;25.40
64835;BME280;51293;59.296;18.006;2022-07-06T12:42:02;100536.22;;;28.86;28.07
64835;BME280;51293;59.296;18.006;2022-07-06T12:44:28;100532.22;;;27.35;31.06
64835;BME280;51293;59.296;18.006;2022-07-06T12:47:08;100536.72;;;25.83;33.26